Time;durP1;ratioP1;P1;durP2;ratioP2;P2;SDS_P1;SDS_P2;PMS_P1;PMS_P2;Temp;Humidity;BMP_temperature;BMP_pressure;BME280_temperature;BME280_humidity;BME280_pressure;Samples;Min_cycle;Max_cycle;Signal;HPM_P1;HPM_P2
2022/10/22 00:00:22;;;;;;;7.57;4.18;;;;;;;;;;5035249;28;20418;-84
2022/10/22 00:02:47;;;;;;;6.53;3.72;;;;;;;;;;5032173;28;20024;-84
2022/10/22 00:05:12;;;;;;;15.32;4.90;;;;;;;;;;5035090;28;20017;-82
2022/10/22 00:07:38;;;;;;;13.25;4.22;;;;;;;;;;5034968;28;20017;-83
2022/10/22 00:10:04;;;;;;;12.68;4.50;;;;;;;;;;5035013;28;20041;-84
2022/10/22 00:12:29;;;;;;;9.68;4.95;;;;;;;;;;5035042;28;20467;-84
2022/10/22 00:14:54;;;;;;;16.07;4.70;;;;;;;;;;5034987;28;20068;-82
2022/10/22 00:17:20;;;;;;;18.57;4.93;;;;;;;;;;5029076;28;20820;-82
2022/10/22 00:19:45;;;;;;;12.55;5.22;;;;;;;;;;5014757;28;20759;-82
2022/10/22 00:22:10;;;;;;;9.45;4.55;;;;;;;;;;5032187;28;20407;-83
2022/10/22 00:24:36;;;;;;;14.07;4.75;;;;;;;;;;5034449;28;20112;-83
2022/10/22 00:27:02;;;;;;;7.47;4.35;;;;;;;;;;5020660;28;20471;-83
2022/10/22 00:29:27;;;;;;;12.45;5.22;;;;;;;;;;5034759;28;20050;-80
2022/10/22 00:31:53;;;;;;;13.70;5.22;;;;;;;;;;5016295;28;20486;-82
2022/10/22 00:34:20;;;;;;;16.20;4.65;;;;;;;;;;5034610;28;20044;-82
2022/10/22 00:36:45;;;;;;;15.07;5.55;;;;;;;;;;5034009;28;20017;-82
2022/10/22 00:39:12;;;;;;;17.50;4.75;;;;;;;;;;5034594;28;20029;-82
2022/10/22 00:41:38;;;;;;;15.88;5.32;;;;;;;;;;5027107;28;20024;-82
2022/10/22 00:44:04;;;;;;;9.80;4.35;;;;;;;;;;5012434;28;20108;-82
2022/10/22 00:46:29;;;;;;;9.52;4.43;;;;;;;;;;5039289;28;20058;-82
2022/10/22 00:48:57;;;;;;;12.95;4.57;;;;;;;;;;5040878;28;20025;-83
2022/10/22 00:51:24;;;;;;;28.05;6.53;;;;;;;;;;5034009;28;20013;-83
2022/10/22 00:53:52;;;;;;;11.18;4.90;;;;;;;;;;5033884;28;20028;-81
2022/10/22 00:56:18;;;;;;;10.70;5.55;;;;;;;;;;5034632;28;20513;-80
2022/10/22 00:58:46;;;;;;;12.25;5.22;;;;;;;;;;5033979;28;20021;-81
2022/10/22 01:01:16;;;;;;;8.93;4.70;;;;;;;;;;5033901;28;20024;-80
2022/10/22 01:03:41;;;;;;;9.23;4.35;;;;;;;;;;5020958;28;20406;-80
2022/10/22 01:06:07;;;;;;;11.23;4.80;;;;;;;;;;5033524;28;20022;-82
2022/10/22 01:08:40;;;;;;;17.60;4.90;;;;;;;;;;5032802;28;20095;-81
2022/10/22 01:11:11;;;;;;;8.43;4.78;;;;;;;;;;5034161;28;20272;-81
2022/10/22 01:13:54;;;;;;;10.02;5.47;;;;;;;;;;5029192;28;20024;-82
2022/10/22 01:16:26;;;;;;;10.38;4.75;;;;;;;;;;5021021;28;20021;-83
2022/10/22 01:18:51;;;;;;;11.63;5.07;;;;;;;;;;5032696;28;20065;-80
2022/10/22 01:21:16;;;;;;;11.40;4.23;;;;;;;;;;5032808;28;20438;-82
2022/10/22 01:23:41;;;;;;;12.67;4.47;;;;;;;;;;5033230;28;20741;-83
2022/10/22 01:26:12;;;;;;;8.17;3.80;;;;;;;;;;5032958;28;20268;-83
2022/10/22 01:28:50;;;;;;;16.85;6.20;;;;;;;;;;5029728;28;20041;-82
2022/10/22 01:31:16;;;;;;;11.05;4.47;;;;;;;;;;5033395;28;20080;-82
2022/10/22 01:33:43;;;;;;;10.38;4.00;;;;;;;;;;5032732;28;20158;-80
2022/10/22 01:36:09;;;;;;;12.25;4.30;;;;;;;;;;5031210;28;20120;-82
2022/10/22 01:38:35;;;;;;;11.10;3.97;;;;;;;;;;5024631;28;20036;-81
2022/10/22 01:41:00;;;;;;;8.30;4.03;;;;;;;;;;5032802;28;20013;-81
2022/10/22 01:43:26;;;;;;;9.73;4.53;;;;;;;;;;5033177;28;20052;-83
2022/10/22 01:45:55;;;;;;;8.35;4.53;;;;;;;;;;5038715;28;20017;-83
2022/10/22 01:48:39;;;;;;;8.00;4.25;;;;;;;;;;5032753;28;20028;-83
2022/10/22 01:51:22;;;;;;;15.27;5.07;;;;;;;;;;5033321;28;20525;-83
2022/10/22 01:53:51;;;;;;;10.27;4.20;;;;;;;;;;5042395;28;20337;-78
2022/10/22 01:56:20;;;;;;;8.75;4.47;;;;;;;;;;5032971;28;20092;-85
2022/10/22 01:58:48;;;;;;;8.15;5.05;;;;;;;;;;5031513;28;20068;-85
2022/10/22 02:01:19;;;;;;;10.52;3.97;;;;;;;;;;5032390;28;20108;-84
2022/10/22 02:03:49;;;;;;;9.90;4.80;;;;;;;;;;5031935;28;20032;-84
2022/10/22 02:06:17;;;;;;;14.13;4.63;;;;;;;;;;5032065;28;20411;-84
2022/10/22 02:08:43;;;;;;;9.57;4.95;;;;;;;;;;5033033;28;20021;-84
2022/10/22 02:11:10;;;;;;;14.85;4.95;;;;;;;;;;5032589;28;20022;-82
2022/10/22 02:13:38;;;;;;;15.60;4.88;;;;;;;;;;5032578;28;20060;-82
2022/10/22 02:16:05;;;;;;;9.82;3.83;;;;;;;;;;5024379;28;20098;-81
2022/10/22 02:18:31;;;;;;;9.70;4.68;;;;;;;;;;5032176;28;20024;-83
2022/10/22 02:20:57;;;;;;;11.55;5.32;;;;;;;;;;5032593;28;20395;-81
2022/10/22 02:23:23;;;;;;;10.70;4.70;;;;;;;;;;5031822;28;20018;-82
2022/10/22 02:25:50;;;;;;;8.38;3.97;;;;;;;;;;5030866;28;20013;-84
2022/10/22 02:28:39;;;;;;;8.63;4.50;;;;;;;;;;5026609;28;20056;-84
2022/10/22 02:31:16;;;;;;;14.68;4.53;;;;;;;;;;5002296;28;20048;-82
2022/10/22 02:33:44;;;;;;;12.32;4.40;;;;;;;;;;5032359;28;20474;-83
2022/10/22 02:36:10;;;;;;;6.65;3.78;;;;;;;;;;5032547;28;20018;-83
2022/10/22 02:38:35;;;;;;;9.07;4.25;;;;;;;;;;5031883;28;20494;-82
2022/10/22 02:41:01;;;;;;;12.05;4.47;;;;;;;;;;5011344;28;20029;-84
2022/10/22 02:43:27;;;;;;;6.63;3.75;;;;;;;;;;5022457;28;20013;-78
2022/10/22 02:45:53;;;;;;;9.07;4.55;;;;;;;;;;5031070;28;20688;-81
2022/10/22 02:48:18;;;;;;;7.80;3.78;;;;;;;;;;5032382;28;20024;-83
2022/10/22 02:50:43;;;;;;;12.65;4.07;;;;;;;;;;5032457;28;20061;-83
2022/10/22 02:53:08;;;;;;;9.57;4.73;;;;;;;;;;5032230;28;20017;-84
2022/10/22 02:55:34;;;;;;;8.57;4.20;;;;;;;;;;5042168;28;20278;-84
2022/10/22 02:57:59;;;;;;;14.90;4.40;;;;;;;;;;5047616;28;20374;-82
2022/10/22 03:00:24;;;;;;;10.93;3.73;;;;;;;;;;5029511;28;20291;-81
2022/10/22 03:02:49;;;;;;;8.73;4.80;;;;;;;;;;5032077;28;20268;-80
2022/10/22 03:05:14;;;;;;;8.27;3.70;;;;;;;;;;5033119;28;20272;-82
2022/10/22 03:07:40;;;;;;;5.88;3.80;;;;;;;;;;5032347;28;20303;-81
2022/10/22 03:10:05;;;;;;;7.35;4.13;;;;;;;;;;5032321;28;20471;-84
2022/10/22 03:12:31;;;;;;;7.63;3.78;;;;;;;;;;5031113;28;20017;-80
2022/10/22 03:14:56;;;;;;;7.45;4.57;;;;;;;;;;5032484;28;20045;-81
2022/10/22 03:17:21;;;;;;;14.18;4.53;;;;;;;;;;5031539;28;20014;-81
2022/10/22 03:19:46;;;;;;;10.83;4.83;;;;;;;;;;5031546;28;20034;-81
2022/10/22 03:22:18;;;;;;;10.27;4.40;;;;;;;;;;5032152;28;20276;-81
2022/10/22 03:24:45;;;;;;;8.85;4.38;;;;;;;;;;5028182;28;20302;-81
2022/10/22 03:27:11;;;;;;;7.95;4.35;;;;;;;;;;5031719;28;20029;-84
2022/10/22 03:29:37;;;;;;;8.93;4.35;;;;;;;;;;5031993;28;20063;-83
2022/10/22 03:32:03;;;;;;;12.85;4.40;;;;;;;;;;5032263;28;20025;-83
2022/10/22 03:34:28;;;;;;;8.77;4.63;;;;;;;;;;5012016;28;20032;-82
2022/10/22 03:36:55;;;;;;;16.40;4.40;;;;;;;;;;5033801;28;20068;-82
2022/10/22 03:39:20;;;;;;;7.88;4.03;;;;;;;;;;5035328;28;20101;-84
2022/10/22 03:41:47;;;;;;;12.50;4.07;;;;;;;;;;5021393;28;20108;-80
2022/10/22 03:44:13;;;;;;;8.65;4.10;;;;;;;;;;5034840;28;20100;-82
2022/10/22 03:46:38;;;;;;;11.43;4.57;;;;;;;;;;5032432;28;20018;-82
2022/10/22 03:49:03;;;;;;;5.30;3.83;;;;;;;;;;5034885;28;20027;-83
2022/10/22 03:51:29;;;;;;;11.30;4.60;;;;;;;;;;5031811;28;20272;-81
2022/10/22 03:53:54;;;;;;;8.90;4.45;;;;;;;;;;5031455;28;20037;-81
2022/10/22 03:56:19;;;;;;;15.48;4.35;;;;;;;;;;5034529;28;20017;-83
2022/10/22 03:58:44;;;;;;;7.80;3.80;;;;;;;;;;5031681;28;20475;-84
2022/10/22 04:01:11;;;;;;;9.63;4.50;;;;;;;;;;5034665;28;20025;-81
2022/10/22 04:03:36;;;;;;;7.55;4.25;;;;;;;;;;5033504;28;20017;-83
2022/10/22 04:06:02;;;;;;;10.25;4.47;;;;;;;;;;5036839;28;20013;-82
2022/10/22 04:08:27;;;;;;;11.13;4.85;;;;;;;;;;5029273;28;20025;-82
2022/10/22 04:10:52;;;;;;;8.70;4.63;;;;;;;;;;5031308;28;20021;-81
2022/10/22 04:13:18;;;;;;;14.30;5.20;;;;;;;;;;5033958;28;20272;-82
2022/10/22 04:15:43;;;;;;;6.80;4.93;;;;;;;;;;5034515;28;20860;-82
2022/10/22 04:18:08;;;;;;;9.17;4.10;;;;;;;;;;5033318;28;20017;-80
2022/10/22 04:20:33;;;;;;;8.45;4.72;;;;;;;;;;5033610;28;20319;-81
2022/10/22 04:22:58;;;;;;;10.35;5.25;;;;;;;;;;5034319;28;20022;-80
2022/10/22 04:25:24;;;;;;;12.30;5.38;;;;;;;;;;5034443;28;20101;-81
2022/10/22 04:27:49;;;;;;;16.13;5.47;;;;;;;;;;5033821;28;20044;-79
2022/10/22 04:30:14;;;;;;;11.60;5.40;;;;;;;;;;5034681;28;20268;-81
2022/10/22 04:32:39;;;;;;;11.48;5.07;;;;;;;;;;5034290;28;20375;-80
2022/10/22 04:35:05;;;;;;;13.10;5.28;;;;;;;;;;5030764;28;20112;-80
2022/10/22 04:37:31;;;;;;;14.65;4.72;;;;;;;;;;5033617;28;20032;-81
2022/10/22 04:39:56;;;;;;;12.15;4.75;;;;;;;;;;5033712;28;20017;-80
2022/10/22 04:42:22;;;;;;;11.30;4.00;;;;;;;;;;5034440;28;20388;-79
2022/10/22 04:44:47;;;;;;;8.30;4.00;;;;;;;;;;5028008;28;20265;-80
2022/10/22 04:47:12;;;;;;;13.32;4.35;;;;;;;;;;5027014;28;20288;-81
2022/10/22 04:49:37;;;;;;;10.50;4.45;;;;;;;;;;5030268;28;20056;-80
2022/10/22 04:52:03;;;;;;;16.83;4.63;;;;;;;;;;5034157;28;20025;-79
2022/10/22 04:54:28;;;;;;;11.18;4.60;;;;;;;;;;5033367;28;20276;-80
2022/10/22 04:56:53;;;;;;;10.70;4.78;;;;;;;;;;5034089;28;20032;-80
2022/10/22 04:59:18;;;;;;;9.47;3.83;;;;;;;;;;5033987;28;20036;-80
2022/10/22 05:01:44;;;;;;;9.60;4.80;;;;;;;;;;5033789;28;20272;-80
2022/10/22 05:04:13;;;;;;;9.07;4.30;;;;;;;;;;5032476;28;20355;-79
2022/10/22 05:06:39;;;;;;;10.27;4.35;;;;;;;;;;5033878;28;20046;-80
2022/10/22 05:09:05;;;;;;;10.75;3.88;;;;;;;;;;5032779;28;20045;-81
2022/10/22 05:11:32;;;;;;;15.35;4.93;;;;;;;;;;5032823;28;20025;-74
2022/10/22 05:13:58;;;;;;;11.27;4.50;;;;;;;;;;5029200;28;20044;-80
2022/10/22 05:16:24;;;;;;;12.75;3.88;;;;;;;;;;5033216;28;20385;-75
2022/10/22 05:18:50;;;;;;;9.55;3.80;;;;;;;;;;5031527;28;20049;-78
2022/10/22 05:21:16;;;;;;;10.20;4.47;;;;;;;;;;5029245;28;20041;-80
2022/10/22 05:23:41;;;;;;;9.13;4.28;;;;;;;;;;5029894;28;20100;-74
2022/10/22 05:26:08;;;;;;;10.60;4.18;;;;;;;;;;5031142;28;20105;-74
2022/10/22 05:28:33;;;;;;;9.60;3.78;;;;;;;;;;5003235;28;20017;-75
2022/10/22 05:30:59;;;;;;;11.32;4.07;;;;;;;;;;4990538;28;20776;-77
2022/10/22 05:33:24;;;;;;;9.00;3.75;;;;;;;;;;4988541;28;20010;-75
2022/10/22 05:35:50;;;;;;;11.18;3.47;;;;;;;;;;4991255;28;20071;-76
2022/10/22 05:38:16;;;;;;;10.20;3.33;;;;;;;;;;4987862;28;20035;-77
2022/10/22 05:40:41;;;;;;;7.05;2.80;;;;;;;;;;4989550;28;20041;-76
2022/10/22 05:43:06;;;;;;;8.55;3.45;;;;;;;;;;4994490;28;20968;-76
2022/10/22 05:45:35;;;;;;;14.75;3.50;;;;;;;;;;4988484;28;20018;-78
2022/10/22 05:48:00;;;;;;;10.73;3.85;;;;;;;;;;4991936;28;20029;-78
2022/10/22 05:50:25;;;;;;;7.57;3.57;;;;;;;;;;4972540;28;20017;-74
2022/10/22 05:52:51;;;;;;;7.32;2.80;;;;;;;;;;4988582;28;20296;-80
2022/10/22 05:55:16;;;;;;;4.30;2.47;;;;;;;;;;4989164;28;20082;-76
2022/10/22 05:57:41;;;;;;;15.47;3.60;;;;;;;;;;4989531;28;20922;-76
2022/10/22 06:00:06;;;;;;;7.10;3.20;;;;;;;;;;4989473;28;21050;-79
2022/10/22 06:02:32;;;;;;;6.78;2.97;;;;;;;;;;4989311;28;20124;-78
2022/10/22 06:04:57;;;;;;;10.50;3.42;;;;;;;;;;4989776;28;20021;-78
2022/10/22 06:07:22;;;;;;;8.07;3.40;;;;;;;;;;4990512;28;20029;-76
2022/10/22 06:09:49;;;;;;;12.68;4.05;;;;;;;;;;4994067;28;20260;-80
2022/10/22 06:12:14;;;;;;;7.57;3.47;;;;;;;;;;4990567;28;20017;-79
2022/10/22 06:14:40;;;;;;;11.82;3.08;;;;;;;;;;4971741;28;20022;-79
2022/10/22 06:17:05;;;;;;;9.35;3.58;;;;;;;;;;4990637;28;20025;-78
2022/10/22 06:19:30;;;;;;;7.40;3.08;;;;;;;;;;4988909;28;20051;-81
2022/10/22 06:21:55;;;;;;;7.47;3.13;;;;;;;;;;4990919;28;20832;-79
2022/10/22 06:24:21;;;;;;;6.53;3.25;;;;;;;;;;4991545;28;20024;-77
2022/10/22 06:26:48;;;;;;;7.28;3.75;;;;;;;;;;4989513;28;20998;-80
2022/10/22 06:29:13;;;;;;;8.32;2.92;;;;;;;;;;4987797;28;20761;-76
2022/10/22 06:31:39;;;;;;;9.33;4.27;;;;;;;;;;4985763;28;20064;-75
2022/10/22 06:34:05;;;;;;;9.00;3.33;;;;;;;;;;4992577;28;21229;-76
2022/10/22 06:36:30;;;;;;;8.48;3.60;;;;;;;;;;4987810;28;20021;-77
2022/10/22 06:38:56;;;;;;;7.60;3.25;;;;;;;;;;4986736;28;20803;-80
2022/10/22 06:41:22;;;;;;;8.38;3.47;;;;;;;;;;4991004;28;20044;-77
2022/10/22 06:43:47;;;;;;;14.05;3.53;;;;;;;;;;5021312;28;20018;-77
2022/10/22 06:46:14;;;;;;;6.07;3.30;;;;;;;;;;5030127;28;20071;-79
2022/10/22 06:48:40;;;;;;;9.45;3.72;;;;;;;;;;5030971;28;20018;-79
2022/10/22 06:51:06;;;;;;;7.47;2.35;;;;;;;;;;5031720;28;20021;-78
2022/10/22 06:53:32;;;;;;;5.10;2.47;;;;;;;;;;5030749;28;20068;-80
2022/10/22 06:55:57;;;;;;;8.82;3.47;;;;;;;;;;5031224;28;20028;-79
2022/10/22 06:58:22;;;;;;;14.57;3.92;;;;;;;;;;5032200;28;20083;-80
2022/10/22 07:00:47;;;;;;;9.27;2.78;;;;;;;;;;5027098;28;20488;-80
2022/10/22 07:03:13;;;;;;;10.85;3.20;;;;;;;;;;5031337;28;20471;-80
2022/10/22 07:05:39;;;;;;;11.73;3.42;;;;;;;;;;5031087;28;20109;-81
2022/10/22 07:08:04;;;;;;;11.18;3.22;;;;;;;;;;5031678;28;20025;-82
2022/10/22 07:10:30;;;;;;;7.88;3.03;;;;;;;;;;5030656;28;20018;-82
2022/10/22 07:12:55;;;;;;;10.55;2.92;;;;;;;;;;5034762;28;20479;-78
2022/10/22 07:15:20;;;;;;;8.17;3.40;;;;;;;;;;5012674;28;20028;-82
2022/10/22 07:17:45;;;;;;;13.23;3.83;;;;;;;;;;5035089;28;20276;-81
2022/10/22 07:20:11;;;;;;;12.43;4.18;;;;;;;;;;5039685;28;20300;-82
2022/10/22 07:22:36;;;;;;;7.85;2.80;;;;;;;;;;5035234;28;20883;-82
2022/10/22 07:25:02;;;;;;;7.95;2.55;;;;;;;;;;5035481;28;20372;-84
2022/10/22 07:27:27;;;;;;;12.00;2.95;;;;;;;;;;5035153;28;20124;-80
2022/10/22 07:29:52;;;;;;;9.50;2.63;;;;;;;;;;5034662;28;20083;-82
2022/10/22 07:32:17;;;;;;;9.18;2.72;;;;;;;;;;5035408;28;20026;-79
2022/10/22 07:34:43;;;;;;;9.23;2.73;;;;;;;;;;5035101;28;20023;-79
2022/10/22 07:37:08;;;;;;;14.03;3.17;;;;;;;;;;5035466;28;20774;-79
2022/10/22 07:39:33;;;;;;;14.10;3.30;;;;;;;;;;5029720;28;20846;-78
2022/10/22 07:41:58;;;;;;;10.30;2.50;;;;;;;;;;5033693;28;20678;-76
2022/10/22 07:44:24;;;;;;;9.18;2.95;;;;;;;;;;5034638;28;20033;-83
2022/10/22 07:46:49;;;;;;;9.48;2.63;;;;;;;;;;5035381;28;20017;-84
2022/10/22 07:49:14;;;;;;;7.68;2.50;;;;;;;;;;5034308;28;20437;-83
2022/10/22 07:51:39;;;;;;;6.50;1.87;;;;;;;;;;5029190;28;20104;-83
2022/10/22 07:54:05;;;;;;;6.23;2.23;;;;;;;;;;5034936;28;20260;-81
2022/10/22 07:56:30;;;;;;;8.82;2.92;;;;;;;;;;5034249;28;20299;-77
2022/10/22 07:58:55;;;;;;;6.15;2.72;;;;;;;;;;5034653;28;20024;-81
2022/10/22 08:01:20;;;;;;;7.07;2.88;;;;;;;;;;5032820;28;20025;-78
2022/10/22 08:03:46;;;;;;;9.02;2.70;;;;;;;;;;5034765;28;20490;-82
2022/10/22 08:06:12;;;;;;;7.15;2.80;;;;;;;;;;5025648;28;20021;-81
2022/10/22 08:08:37;;;;;;;8.95;2.33;;;;;;;;;;5032898;28;20468;-81
2022/10/22 08:11:02;;;;;;;5.87;2.87;;;;;;;;;;5034726;28;20025;-80
2022/10/22 08:13:29;;;;;;;7.65;2.63;;;;;;;;;;5030484;28;20867;-79
2022/10/22 08:15:55;;;;;;;10.43;2.60;;;;;;;;;;5002698;28;20018;-82
2022/10/22 08:18:20;;;;;;;5.25;2.55;;;;;;;;;;5034592;28;20028;-80
2022/10/22 08:20:45;;;;;;;6.67;2.70;;;;;;;;;;5016344;28;20087;-81
2022/10/22 08:23:10;;;;;;;7.40;2.30;;;;;;;;;;5034538;28;20296;-83
2022/10/22 08:25:36;;;;;;;9.65;2.97;;;;;;;;;;5034779;28;20033;-79
2022/10/22 08:28:01;;;;;;;9.13;2.50;;;;;;;;;;5032337;28;20017;-79
2022/10/22 08:30:28;;;;;;;9.83;2.43;;;;;;;;;;5028745;28;20022;-79
2022/10/22 08:32:53;;;;;;;7.15;2.85;;;;;;;;;;5032665;28;21026;-82
2022/10/22 08:35:19;;;;;;;6.97;2.67;;;;;;;;;;5034428;28;20052;-82
2022/10/22 08:37:44;;;;;;;8.50;2.50;;;;;;;;;;5032486;28;20025;-83
2022/10/22 08:40:17;;;;;;;5.50;2.27;;;;;;;;;;5034227;28;20299;-83
2022/10/22 08:43:01;;;;;;;7.82;2.83;;;;;;;;;;5045238;28;20768;-80
2022/10/22 08:45:30;;;;;;;12.10;2.15;;;;;;;;;;5032955;28;20018;-79
2022/10/22 08:48:13;;;;;;;5.95;2.35;;;;;;;;;;5033698;28;20068;-81
2022/10/22 08:50:40;;;;;;;4.70;2.05;;;;;;;;;;5034776;28;20021;-79
2022/10/22 08:53:11;;;;;;;11.85;3.10;;;;;;;;;;5033541;28;20017;-82
2022/10/22 08:55:36;;;;;;;7.38;2.85;;;;;;;;;;5016093;28;20551;-83
2022/10/22 08:58:04;;;;;;;6.40;2.10;;;;;;;;;;5033729;28;20094;-77
2022/10/22 09:00:33;;;;;;;9.50;2.53;;;;;;;;;;5030334;28;20021;-79
2022/10/22 09:03:05;;;;;;;7.43;2.58;;;;;;;;;;5033424;28;20025;-80
2022/10/22 09:06:05;;;;;;;5.13;2.08;;;;;;;;;;5033827;28;20026;-77
2022/10/22 09:08:31;;;;;;;8.32;2.28;;;;;;;;;;4970883;28;20509;-81
2022/10/22 09:11:11;;;;;;;4.78;1.85;;;;;;;;;;5019016;28;20017;-78
2022/10/22 09:13:36;;;;;;;8.85;2.40;;;;;;;;;;5027480;28;20720;-78
2022/10/22 09:16:12;;;;;;;11.40;2.75;;;;;;;;;;5030621;28;20168;-77
2022/10/22 09:18:50;;;;;;;6.57;2.45;;;;;;;;;;5033025;28;20060;-77
2022/10/22 09:21:23;;;;;;;4.30;1.85;;;;;;;;;;5019683;28;20036;-76
2022/10/22 09:23:53;;;;;;;10.07;2.27;;;;;;;;;;5026723;28;20028;-79
2022/10/22 09:26:18;;;;;;;7.50;2.17;;;;;;;;;;5033126;28;20100;-80
2022/10/22 09:28:48;;;;;;;4.50;2.00;;;;;;;;;;5032859;28;20082;-80
2022/10/22 09:31:14;;;;;;;6.05;2.08;;;;;;;;;;5033286;28;20322;-81
2022/10/22 09:33:40;;;;;;;9.93;2.88;;;;;;;;;;5032118;28;20025;-80
2022/10/22 09:36:06;;;;;;;7.57;2.55;;;;;;;;;;5032465;28;20071;-81
2022/10/22 09:38:44;;;;;;;6.85;2.60;;;;;;;;;;5023430;28;20021;-81
2022/10/22 09:41:10;;;;;;;6.60;2.42;;;;;;;;;;5028114;28;20525;-79
2022/10/22 09:43:35;;;;;;;7.55;2.75;;;;;;;;;;5032818;28;20025;-80
2022/10/22 09:46:02;;;;;;;6.45;2.40;;;;;;;;;;5032212;28;20072;-79
2022/10/22 09:48:33;;;;;;;8.23;2.50;;;;;;;;;;5031938;28;20476;-78
2022/10/22 09:51:01;;;;;;;7.32;2.53;;;;;;;;;;5032763;28;20021;-80
2022/10/22 09:53:30;;;;;;;5.75;2.30;;;;;;;;;;5032317;28;20043;-80
2022/10/22 09:56:00;;;;;;;7.10;2.47;;;;;;;;;;5027557;28;20060;-80
2022/10/22 09:58:25;;;;;;;7.53;2.50;;;;;;;;;;5031928;28;20380;-78
2022/10/22 10:00:52;;;;;;;6.07;2.22;;;;;;;;;;5030184;28;20029;-79
2022/10/22 10:03:20;;;;;;;14.05;2.00;;;;;;;;;;5029164;28;20017;-80
2022/10/22 10:05:50;;;;;;;6.57;2.30;;;;;;;;;;5032598;28;20013;-79
2022/10/22 10:08:16;;;;;;;5.05;2.20;;;;;;;;;;5032244;28;20017;-79
2022/10/22 10:10:53;;;;;;;3.65;1.80;;;;;;;;;;5027926;28;20013;-84
2022/10/22 10:13:18;;;;;;;3.83;1.67;;;;;;;;;;5032456;28;20502;-81
2022/10/22 10:15:49;;;;;;;11.43;2.07;;;;;;;;;;5031972;28;20053;-83
2022/10/22 10:18:24;;;;;;;7.97;2.67;;;;;;;;;;5029884;28;20064;-82
2022/10/22 10:20:49;;;;;;;;;;;;;;;;;;5031447;28;20026;-81
2022/10/22 10:23:30;;;;;;;4.65;1.80;;;;;;;;;;5031824;28;19909;-81
2022/10/22 10:26:00;;;;;;;8.80;1.92;;;;;;;;;;5031749;28;20013;-81
2022/10/22 10:28:40;;;;;;;4.38;2.00;;;;;;;;;;5032374;28;20049;-77
2022/10/22 10:31:19;;;;;;;7.20;2.53;;;;;;;;;;5013877;28;20067;-80
2022/10/22 10:33:47;;;;;;;6.03;2.38;;;;;;;;;;5022682;28;20021;-75
2022/10/22 10:36:35;;;;;;;6.82;2.30;;;;;;;;;;5032078;28;20056;-79
2022/10/22 10:39:07;;;;;;;8.43;3.00;;;;;;;;;;5032039;28;20025;-81
2022/10/22 10:41:41;;;;;;;9.07;3.10;;;;;;;;;;5031108;28;20021;-78
2022/10/22 10:44:25;;;;;;;11.35;3.63;;;;;;;;;;5032675;28;20017;-83
2022/10/22 10:46:59;;;;;;;8.83;3.30;;;;;;;;;;5032724;28;20014;-83
2022/10/22 10:49:25;;;;;;;7.72;2.45;;;;;;;;;;5035454;28;20017;-82
2022/10/22 10:52:01;;;;;;;8.50;2.80;;;;;;;;;;5034872;28;20467;-77
2022/10/22 10:54:32;;;;;;;9.23;2.30;;;;;;;;;;5032990;28;20036;-79
2022/10/22 10:57:03;;;;;;;7.13;2.28;;;;;;;;;;5036083;28;20024;-77
2022/10/22 10:59:34;;;;;;;5.40;2.05;;;;;;;;;;5035884;28;20475;-82
2022/10/22 11:02:18;;;;;;;5.60;2.08;;;;;;;;;;5035386;28;20017;-82
2022/10/22 11:04:43;;;;;;;4.95;2.15;;;;;;;;;;5032481;28;20017;-77
2022/10/22 11:07:11;;;;;;;7.37;2.63;;;;;;;;;;5035669;28;20025;-78
2022/10/22 11:09:45;;;;;;;6.35;2.42;;;;;;;;;;5035900;28;20025;-79
2022/10/22 11:12:22;;;;;;;5.03;2.33;;;;;;;;;;5034629;28;20064;-81
2022/10/22 11:14:50;;;;;;;7.22;1.92;;;;;;;;;;5035939;28;20487;-78
2022/10/22 11:17:17;;;;;;;6.88;2.30;;;;;;;;;;5035545;28;20056;-79
2022/10/22 11:19:46;;;;;;;8.05;2.00;;;;;;;;;;5035624;28;20045;-84
2022/10/22 11:22:18;;;;;;;7.50;1.95;;;;;;;;;;5032999;28;20029;-79
2022/10/22 11:24:49;;;;;;;11.40;2.63;;;;;;;;;;5034523;28;20091;-79
2022/10/22 11:27:14;;;;;;;19.13;2.17;;;;;;;;;;5034362;28;20025;-79
2022/10/22 11:29:41;;;;;;;6.90;2.37;;;;;;;;;;5028023;28;20356;-81
2022/10/22 11:32:13;;;;;;;7.93;2.85;;;;;;;;;;5031458;28;20041;-82
2022/10/22 11:34:44;;;;;;;7.05;2.58;;;;;;;;;;5033923;28;20156;-79
2022/10/22 11:37:10;;;;;;;7.00;2.00;;;;;;;;;;5034744;28;20071;-82
2022/10/22 11:39:35;;;;;;;6.07;2.13;;;;;;;;;;5033433;28;20026;-80
2022/10/22 11:42:03;;;;;;;7.00;2.80;;;;;;;;;;5031352;28;20021;-74
2022/10/22 11:44:29;;;;;;;11.30;2.15;;;;;;;;;;5019837;28;20084;-78
2022/10/22 11:46:54;;;;;;;6.00;2.45;;;;;;;;;;5017849;28;20074;-79
2022/10/22 11:49:46;;;;;;;5.20;2.33;;;;;;;;;;5031834;28;20021;-75
2022/10/22 11:52:24;;;;;;;7.72;2.20;;;;;;;;;;5009611;28;20041;-76
2022/10/22 11:54:52;;;;;;;6.13;2.72;;;;;;;;;;5025964;28;20059;-77
2022/10/22 11:57:24;;;;;;;7.05;2.30;;;;;;;;;;5032273;28;20063;-77
2022/10/22 11:59:51;;;;;;;10.88;2.72;;;;;;;;;;5032046;28;20017;-76
2022/10/22 12:02:37;;;;;;;7.68;2.78;;;;;;;;;;5032151;28;20067;-75
2022/10/22 12:05:20;;;;;;;8.38;2.55;;;;;;;;;;5032848;28;20087;-76
2022/10/22 12:07:55;;;;;;;3.92;1.73;;;;;;;;;;5031841;28;20028;-75
2022/10/22 12:10:21;;;;;;;9.57;2.08;;;;;;;;;;5032433;28;20049;-80
2022/10/22 12:12:57;;;;;;;5.65;1.52;;;;;;;;;;5032200;28;20409;-78
2022/10/22 12:15:24;;;;;;;8.90;2.45;;;;;;;;;;5025159;28;20029;-79
2022/10/22 12:17:50;;;;;;;6.38;2.05;;;;;;;;;;5032965;28;20022;-76
2022/10/22 12:20:16;;;;;;;8.57;2.53;;;;;;;;;;5028628;28;20456;-74
2022/10/22 12:22:42;;;;;;;5.63;1.88;;;;;;;;;;5038913;28;20026;-76
2022/10/22 12:25:20;;;;;;;6.18;2.03;;;;;;;;;;5033537;28;20026;-80
2022/10/22 12:27:49;;;;;;;4.45;1.92;;;;;;;;;;5034077;28;20094;-80
2022/10/22 12:30:22;;;;;;;6.43;2.05;;;;;;;;;;5034155;28;20053;-78
2022/10/22 12:32:50;;;;;;;5.22;2.17;;;;;;;;;;5034216;28;20101;-78
2022/10/22 12:35:16;;;;;;;7.40;2.58;;;;;;;;;;5034268;28;20018;-83
2022/10/22 12:37:42;;;;;;;4.55;1.73;;;;;;;;;;5014938;28;20085;-81
2022/10/22 12:40:21;;;;;;;4.35;1.83;;;;;;;;;;5023715;28;20390;-79
2022/10/22 12:42:50;;;;;;;8.38;1.98;;;;;;;;;;5034108;28;20017;-81
2022/10/22 12:45:16;;;;;;;4.20;1.73;;;;;;;;;;5034021;28;20013;-80
2022/10/22 12:47:49;;;;;;;5.53;2.33;;;;;;;;;;5007927;28;20475;-80
2022/10/22 12:50:18;;;;;;;8.40;2.38;;;;;;;;;;5034238;28;20021;-78
2022/10/22 12:52:44;;;;;;;5.15;2.30;;;;;;;;;;5031897;28;20071;-81
2022/10/22 12:55:17;;;;;;;5.50;2.38;;;;;;;;;;5027392;28;20025;-82
2022/10/22 12:57:42;;;;;;;9.52;2.80;;;;;;;;;;5027556;28;20018;-81
2022/10/22 13:00:19;;;;;;;9.57;2.50;;;;;;;;;;5033862;28;20083;-79
2022/10/22 13:02:44;;;;;;;12.43;2.20;;;;;;;;;;5009571;28;20771;-84
2022/10/22 13:05:38;;;;;;;6.37;2.77;;;;;;;;;;5038882;28;20097;-86
2022/10/22 13:08:15;;;;;;;6.00;2.33;;;;;;;;;;5014199;28;20280;-77
2022/10/22 13:10:47;;;;;;;4.28;1.77;;;;;;;;;;5032638;28;20096;-79
2022/10/22 13:13:31;;;;;;;6.13;1.92;;;;;;;;;;5034924;28;20041;-82
2022/10/22 13:16:11;;;;;;;8.07;2.00;;;;;;;;;;5043613;28;20100;-84
2022/10/22 13:18:36;;;;;;;4.78;2.22;;;;;;;;;;5033026;28;20025;-80
2022/10/22 13:21:02;;;;;;;4.22;2.03;;;;;;;;;;5031340;28;20037;-85
2022/10/22 13:23:31;;;;;;;5.30;2.22;;;;;;;;;;5032523;28;20364;-84
2022/10/22 13:25:58;;;;;;;5.43;1.88;;;;;;;;;;5034985;28;20479;-88
2022/10/22 13:28:23;;;;;;;5.93;2.35;;;;;;;;;;5032733;28;20022;-77
2022/10/22 13:31:07;;;;;;;6.57;2.25;;;;;;;;;;5037760;28;20016;-79
2022/10/22 13:33:40;;;;;;;8.43;1.87;;;;;;;;;;5038517;28;20024;-86
2022/10/22 13:36:05;;;;;;;5.30;2.03;;;;;;;;;;5014949;28;20036;-84
2022/10/22 13:38:31;;;;;;;8.77;2.30;;;;;;;;;;5030103;28;20025;-82
2022/10/22 13:40:58;;;;;;;7.50;2.60;;;;;;;;;;5033197;28;20498;-89
2022/10/22 13:43:24;;;;;;;5.53;2.53;;;;;;;;;;5045645;28;20083;-86
2022/10/22 13:45:52;;;;;;;6.43;2.50;;;;;;;;;;5033041;28;20025;-83
2022/10/22 13:48:20;;;;;;;10.35;2.22;;;;;;;;;;5033291;28;20025;-87
2022/10/22 13:50:46;;;;;;;3.47;1.75;;;;;;;;;;5038515;28;20025;-85
2022/10/22 13:53:16;;;;;;;4.05;1.77;;;;;;;;;;5026543;28;20432;-81
2022/10/22 13:55:43;;;;;;;4.82;2.10;;;;;;;;;;5029788;28;20025;-79
2022/10/22 13:58:10;;;;;;;8.45;1.80;;;;;;;;;;5031963;28;20494;-77
2022/10/22 14:00:37;;;;;;;8.43;2.72;;;;;;;;;;5031820;28;20036;-74
2022/10/22 14:03:02;;;;;;;6.13;1.90;;;;;;;;;;5032165;28;20025;-74
2022/10/22 14:05:29;;;;;;;7.90;2.28;;;;;;;;;;5032211;28;20083;-71
2022/10/22 14:07:56;;;;;;;5.65;1.77;;;;;;;;;;5032216;28;20021;-71
2022/10/22 14:10:23;;;;;;;5.18;1.83;;;;;;;;;;5032083;28;20109;-74
2022/10/22 14:12:49;;;;;;;5.75;1.95;;;;;;;;;;5032196;28;20014;-72
2022/10/22 14:15:15;;;;;;;3.30;1.27;;;;;;;;;;5032214;28;20025;-73
2022/10/22 14:17:42;;;;;;;7.13;2.20;;;;;;;;;;5030138;28;20224;-73
2022/10/22 14:20:15;;;;;;;4.18;1.98;;;;;;;;;;5026660;28;20120;-71
2022/10/22 14:22:40;;;;;;;8.52;2.08;;;;;;;;;;5026127;28;20832;-72
2022/10/22 14:25:08;;;;;;;3.43;1.73;;;;;;;;;;5029421;28;20024;-70
2022/10/22 14:27:33;;;;;;;4.00;1.70;;;;;;;;;;5031375;28;20764;-83
2022/10/22 14:29:59;;;;;;;6.28;1.67;;;;;;;;;;5031489;28;20036;-82
2022/10/22 14:32:26;;;;;;;4.32;1.98;;;;;;;;;;5034740;28;20371;-75
2022/10/22 14:34:51;;;;;;;4.82;2.00;;;;;;;;;;5014156;28;20021;-71
2022/10/22 14:37:18;;;;;;;4.40;1.80;;;;;;;;;;5031188;28;20025;-69
2022/10/22 14:39:45;;;;;;;7.07;2.13;;;;;;;;;;5030153;28;20407;-69
2022/10/22 14:42:11;;;;;;;9.25;2.33;;;;;;;;;;5028412;28;20025;-67